createdAt,value
2022-11-30T00:00:49.661Z,28.13
2022-11-30T00:03:16.046Z,25.65
2022-11-30T00:05:42.459Z,26.85
2022-11-30T00:08:08.766Z,24.42
2022-11-30T00:10:35.079Z,28.63
2022-11-30T00:13:01.352Z,22.33
2022-11-30T00:15:27.801Z,25.05
2022-11-30T00:17:57.584Z,26.73
2022-11-30T00:20:24.269Z,29.15
2022-11-30T00:22:50.568Z,27.33
2022-11-30T00:25:17.185Z,23.67
2022-11-30T00:27:43.468Z,27.42
2022-11-30T00:30:10.230Z,24.90
2022-11-30T00:32:36.548Z,24.98
2022-11-30T00:35:02.902Z,27.80
2022-11-30T00:37:29.234Z,27.35
2022-11-30T00:39:55.518Z,25.88
2022-11-30T00:42:21.822Z,26.40
2022-11-30T00:44:48.378Z,26.23
2022-11-30T00:47:14.837Z,29.65
2022-11-30T00:49:41.127Z,27.88
2022-11-30T00:52:07.751Z,26.63
2022-11-30T00:54:34.158Z,25.92
2022-11-30T00:57:00.483Z,26.27
2022-11-30T00:59:26.791Z,23.85
2022-11-30T01:01:54.715Z,28.52
2022-11-30T01:04:21.355Z,27.17
2022-11-30T01:06:47.752Z,28.13
2022-11-30T01:09:14.172Z,29.73
2022-11-30T01:11:40.508Z,26.65
2022-11-30T01:14:06.825Z,26.05
2022-11-30T01:16:33.488Z,29.15
2022-11-30T01:19:00.180Z,27.27
2022-11-30T01:21:28.473Z,25.60
2022-11-30T01:23:55.766Z,28.25
2022-11-30T01:26:22.813Z,27.45
2022-11-30T01:28:54.043Z,28.25
2022-11-30T01:31:23.464Z,28.13
2022-11-30T01:33:55.399Z,29.65
2022-11-30T01:36:25.578Z,27.35
2022-11-30T01:38:54.723Z,32.70
2022-11-30T01:41:27.165Z,27.77
2022-11-30T01:43:56.431Z,28.23
2022-11-30T01:46:40.644Z,28.73
2022-11-30T01:49:09.929Z,29.02
2022-11-30T01:51:49.936Z,25.73
2022-11-30T01:54:21.119Z,29.38
2022-11-30T01:59:36.063Z,26.90
2022-11-30T02:02:02.384Z,27.45
2022-11-30T02:04:31.542Z,26.08
2022-11-30T02:06:59.307Z,30.73
2022-11-30T02:09:27.257Z,29.15
2022-11-30T02:11:53.921Z,29.23
2022-11-30T02:14:23.173Z,27.55
2022-11-30T02:17:24.566Z,32.05
2022-11-30T02:25:27.114Z,29.23
2022-11-30T02:28:09.427Z,30.90
2022-11-30T02:30:40.683Z,29.25
2022-11-30T02:33:11.867Z,30.25
2022-11-30T02:38:08.120Z,26.70
2022-11-30T02:40:34.443Z,31.38
2022-11-30T02:43:03.288Z,28.52
2022-11-30T02:45:37.944Z,30.80
2022-11-30T02:48:11.637Z,30.23
2022-11-30T02:50:43.789Z,28.60
2022-11-30T02:53:10.465Z,30.73
2022-11-30T02:55:37.306Z,29.63
2022-11-30T02:58:03.716Z,31.67
2022-11-30T03:00:30.028Z,27.67
2022-11-30T03:02:56.412Z,29.58
2022-11-30T03:05:22.917Z,28.88
2022-11-30T03:07:49.305Z,32.15
2022-11-30T03:10:15.695Z,30.35
2022-11-30T03:12:41.975Z,29.67
2022-11-30T03:15:08.723Z,28.65
2022-11-30T03:17:35.027Z,28.55
2022-11-30T03:20:01.435Z,30.88
2022-11-30T03:22:27.769Z,29.55
2022-11-30T03:24:54.072Z,31.00
2022-11-30T03:27:20.717Z,32.78
2022-11-30T03:29:47.023Z,28.63
2022-11-30T03:32:13.316Z,30.15
2022-11-30T03:34:39.637Z,27.92
2022-11-30T03:37:06.077Z,29.38
2022-11-30T03:39:32.399Z,27.98
2022-11-30T03:41:58.691Z,32.50
2022-11-30T03:44:24.986Z,31.27
2022-11-30T03:46:51.377Z,33.58
2022-11-30T03:49:17.705Z,35.17
2022-11-30T03:51:44.023Z,30.25
2022-11-30T03:54:10.378Z,31.75
2022-11-30T03:56:37.473Z,32.17
2022-11-30T03:59:03.982Z,33.80
2022-11-30T04:01:30.411Z,32.53
2022-11-30T04:03:56.717Z,30.65
2022-11-30T04:06:23.496Z,33.90
2022-11-30T04:08:49.817Z,32.28
2022-11-30T04:11:16.527Z,28.05
2022-11-30T04:13:43.479Z,29.77
2022-11-30T04:16:10.358Z,32.83
2022-11-30T04:18:37.723Z,30.15
2022-11-30T04:21:05.013Z,28.27
2022-11-30T04:23:34.802Z,28.48
2022-11-30T04:26:04.243Z,28.77
2022-11-30T04:28:30.907Z,27.27
2022-11-30T04:30:57.349Z,28.27
2022-11-30T04:33:23.743Z,29.02
2022-11-30T04:35:54.692Z,34.97
2022-11-30T04:38:21.058Z,28.58
2022-11-30T04:40:47.383Z,28.90
2022-11-30T04:43:13.976Z,27.15
2022-11-30T04:45:40.712Z,27.30
2022-11-30T04:48:07.748Z,27.75
2022-11-30T04:50:34.954Z,26.88
2022-11-30T04:53:01.273Z,29.75
2022-11-30T04:55:27.634Z,26.50
2022-11-30T04:57:54.192Z,32.95
2022-11-30T05:00:20.726Z,28.23
2022-11-30T05:02:52.564Z,27.58
2022-11-30T05:05:19.963Z,28.23
2022-11-30T05:07:50.214Z,29.08
2022-11-30T05:10:17.006Z,28.43
2022-11-30T05:12:43.386Z,27.67
2022-11-30T05:15:10.199Z,26.65
2022-11-30T05:17:36.541Z,27.73
2022-11-30T05:20:03.291Z,30.23
2022-11-30T05:22:29.684Z,25.88
2022-11-30T05:24:55.969Z,28.58
2022-11-30T05:27:22.860Z,24.55
2022-11-30T05:29:49.345Z,27.90
2022-11-30T05:32:15.711Z,28.08
2022-11-30T05:34:50.605Z,23.55
2022-11-30T05:37:17.897Z,25.85
2022-11-30T05:39:44.212Z,27.67
2022-11-30T05:42:10.566Z,29.65
2022-11-30T05:44:36.905Z,26.58
2022-11-30T05:47:03.243Z,29.17
2022-11-30T05:49:29.768Z,31.83
2022-11-30T05:51:56.045Z,27.83
2022-11-30T05:54:22.330Z,24.92
2022-11-30T05:56:53.079Z,23.95
2022-11-30T05:59:21.183Z,23.92
2022-11-30T06:01:47.608Z,25.52
2022-11-30T06:04:14.019Z,26.85
2022-11-30T06:06:40.346Z,28.13
2022-11-30T06:09:06.635Z,26.67
2022-11-30T06:11:32.938Z,29.40
2022-11-30T06:13:59.220Z,40.05
2022-11-30T06:16:25.615Z,34.25
2022-11-30T06:18:52.408Z,35.00
2022-11-30T06:21:24.215Z,30.67
2022-11-30T06:23:51.747Z,33.13
2022-11-30T06:26:18.096Z,31.48
2022-11-30T06:28:48.194Z,32.17
2022-11-30T06:31:15.669Z,31.75
2022-11-30T06:33:42.059Z,31.08
2022-11-30T06:36:08.658Z,30.67
2022-11-30T06:38:35.201Z,29.02
2022-11-30T06:41:10.235Z,28.27
2022-11-30T06:43:38.141Z,33.78
2022-11-30T06:46:05.634Z,28.50
2022-11-30T06:48:32.046Z,31.75
2022-11-30T06:50:58.854Z,31.23
2022-11-30T06:53:25.368Z,35.70
2022-11-30T06:55:52.085Z,33.83
2022-11-30T06:58:18.717Z,35.45
2022-11-30T07:00:45.449Z,32.00
2022-11-30T07:03:11.877Z,30.92
2022-11-30T07:05:43.889Z,29.33
2022-11-30T07:08:11.188Z,33.67
2022-11-30T07:10:41.937Z,32.97
2022-11-30T07:13:11.875Z,31.27
2022-11-30T07:15:39.701Z,30.88
2022-11-30T07:18:06.359Z,30.88
2022-11-30T07:20:33.325Z,31.58
2022-11-30T07:23:19.771Z,29.52
2022-11-30T07:26:04.814Z,30.90
2022-11-30T07:28:31.188Z,33.33
2022-11-30T07:30:57.515Z,30.35
2022-11-30T07:33:23.881Z,31.08
2022-11-30T07:35:52.249Z,28.88
2022-11-30T07:38:19.104Z,32.70
2022-11-30T07:40:45.408Z,28.67
2022-11-30T07:43:11.716Z,29.10
2022-11-30T07:45:38.043Z,31.17
2022-11-30T07:48:04.428Z,30.92
2022-11-30T07:50:31.809Z,31.67
2022-11-30T07:52:58.369Z,30.00
2022-11-30T07:55:24.993Z,32.17
2022-11-30T07:57:51.305Z,33.33
2022-11-30T08:00:17.693Z,36.97
2022-11-30T08:02:43.999Z,32.40
2022-11-30T08:05:12.066Z,31.42
2022-11-30T08:07:38.439Z,27.13
2022-11-30T08:10:05.783Z,30.17
2022-11-30T08:12:32.336Z,28.48
2022-11-30T08:15:19.413Z,32.10
2022-11-30T08:17:45.460Z,29.90
2022-11-30T08:20:12.040Z,30.98
2022-11-30T08:22:38.330Z,33.05
2022-11-30T08:25:05.242Z,30.05
2022-11-30T08:27:31.556Z,28.30
2022-11-30T08:29:58.141Z,31.67
2022-11-30T08:32:24.457Z,26.85
2022-11-30T08:34:50.835Z,27.42
2022-11-30T08:37:17.357Z,30.35
2022-11-30T08:39:43.745Z,26.40
2022-11-30T08:42:10.049Z,29.98
2022-11-30T08:44:36.402Z,29.17
2022-11-30T08:47:02.755Z,29.77
2022-11-30T08:49:29.126Z,26.92
2022-11-30T08:54:45.134Z,25.58
2022-11-30T08:57:12.163Z,28.05
2022-11-30T08:59:38.574Z,27.02
2022-11-30T09:02:05.496Z,24.27
2022-11-30T09:04:31.911Z,26.00
2022-11-30T09:06:59.484Z,25.77
2022-11-30T09:09:26.024Z,24.75
2022-11-30T09:11:52.545Z,26.73
2022-11-30T09:14:18.909Z,26.02
2022-11-30T09:16:45.205Z,26.73
2022-11-30T09:19:11.564Z,27.98
2022-11-30T09:21:38.047Z,30.50
2022-11-30T09:24:04.662Z,24.00
2022-11-30T09:26:31.166Z,30.13
2022-11-30T09:28:57.508Z,32.50
2022-11-30T09:31:25.369Z,24.88
2022-11-30T09:33:52.552Z,29.08
2022-11-30T09:36:21.542Z,35.85
2022-11-30T09:38:48.501Z,31.55
2022-11-30T09:41:36.918Z,30.75
2022-11-30T09:44:08.828Z,31.63
2022-11-30T09:47:00.555Z,32.40
2022-11-30T09:49:30.978Z,32.53
2022-11-30T09:52:03.358Z,38.17
2022-11-30T09:54:41.961Z,29.33
2022-11-30T09:57:30.341Z,28.48
2022-11-30T09:59:59.302Z,35.33
2022-11-30T10:02:30.222Z,33.33
2022-11-30T10:07:50.133Z,33.15
2022-11-30T10:10:33.034Z,32.25
2022-11-30T10:13:20.972Z,35.92
2022-11-30T10:15:54.189Z,33.28
2022-11-30T10:18:36.750Z,33.28
2022-11-30T10:21:22.074Z,30.00
2022-11-30T10:23:58.423Z,31.13
2022-11-30T10:26:38.000Z,27.23
2022-11-30T10:29:16.995Z,35.60
2022-11-30T10:31:44.645Z,22.15
2022-11-30T10:34:35.558Z,27.60
2022-11-30T10:37:29.168Z,27.13
2022-11-30T10:39:55.439Z,26.90
2022-11-30T10:42:28.528Z,30.92
2022-11-30T10:45:18.395Z,28.52
2022-11-30T10:47:52.460Z,27.27
2022-11-30T10:50:19.356Z,27.83
2022-11-30T10:52:50.864Z,28.83
2022-11-30T10:55:24.129Z,29.65
2022-11-30T10:57:57.641Z,27.00
2022-11-30T11:00:24.596Z,25.30
2022-11-30T11:02:51.973Z,25.45
2022-11-30T11:05:29.398Z,27.45
2022-11-30T11:08:06.515Z,20.33
2022-11-30T11:10:42.922Z,19.05
2022-11-30T11:13:35.121Z,19.75
2022-11-30T11:16:04.203Z,19.50
2022-11-30T11:18:32.912Z,21.63
2022-11-30T11:21:04.363Z,22.25
2022-11-30T11:23:41.294Z,19.73
2022-11-30T11:26:17.467Z,19.25
2022-11-30T11:28:46.664Z,19.55
2022-11-30T11:31:42.665Z,21.50
2022-11-30T11:34:31.503Z,16.73
2022-11-30T11:37:21.840Z,23.88
2022-11-30T11:40:17.155Z,18.77
2022-11-30T11:42:52.720Z,19.75
2022-11-30T11:45:26.017Z,19.70
2022-11-30T11:48:01.636Z,19.80
2022-11-30T11:53:25.192Z,21.90
2022-11-30T11:55:56.823Z,20.55
2022-11-30T11:58:35.785Z,18.45
2022-11-30T12:01:38.127Z,20.00
2022-11-30T12:04:34.586Z,18.48
2022-11-30T12:07:04.641Z,17.52
2022-11-30T12:09:39.438Z,20.05
2022-11-30T12:12:09.810Z,17.02
2022-11-30T12:14:36.294Z,17.90
2022-11-30T12:17:47.763Z,20.00
2022-11-30T12:23:04.980Z,20.35
2022-11-30T12:25:40.314Z,16.75
2022-11-30T12:28:23.402Z,18.17
2022-11-30T12:31:00.335Z,19.08
2022-11-30T12:33:44.207Z,22.17
2022-11-30T12:36:35.867Z,18.35
2022-11-30T12:39:15.570Z,22.67
2022-11-30T12:41:49.583Z,19.23
2022-11-30T12:44:42.180Z,22.23
2022-11-30T12:47:21.971Z,22.23
2022-11-30T12:49:54.311Z,18.23
2022-11-30T12:52:33.715Z,23.40
2022-11-30T12:55:18.984Z,17.75
2022-11-30T12:57:58.833Z,20.08
2022-11-30T13:00:33.573Z,18.05
2022-11-30T13:03:24.472Z,18.10
2022-11-30T13:06:00.477Z,16.88
2022-11-30T13:08:39.055Z,18.75
2022-11-30T13:11:12.237Z,21.63
2022-11-30T13:13:47.114Z,18.52
2022-11-30T13:16:13.707Z,18.52
2022-11-30T13:18:41.356Z,20.05
2022-11-30T13:21:28.586Z,19.83
2022-11-30T13:24:11.573Z,17.85
2022-11-30T13:26:51.649Z,18.38
2022-11-30T13:29:35.426Z,18.33
2022-11-30T13:32:33.828Z,16.77
2022-11-30T13:35:36.665Z,16.85
2022-11-30T13:38:35.239Z,20.33
2022-11-30T13:41:03.828Z,20.15
2022-11-30T13:43:34.943Z,14.00
2022-11-30T13:48:36.812Z,20.20
2022-11-30T13:51:03.955Z,19.23
2022-11-30T13:53:34.244Z,22.27
2022-11-30T13:56:25.518Z,19.00
2022-11-30T13:59:23.921Z,20.92
2022-11-30T14:01:51.529Z,19.63
2022-11-30T14:04:17.797Z,20.23
2022-11-30T14:06:52.874Z,17.55
2022-11-30T14:09:40.990Z,20.30
2022-11-30T14:12:32.653Z,21.80
2022-11-30T14:15:00.348Z,21.35
2022-11-30T14:17:29.001Z,20.38
2022-11-30T14:20:00.441Z,21.35
2022-11-30T14:22:29.274Z,21.40
2022-11-30T14:24:56.301Z,21.15
2022-11-30T14:27:25.090Z,21.67
2022-11-30T14:29:55.938Z,27.08
2022-11-30T14:32:37.709Z,22.67
2022-11-30T14:35:12.150Z,18.27
2022-11-30T14:37:58.388Z,22.05
2022-11-30T14:40:29.685Z,20.23
2022-11-30T14:43:00.295Z,23.15
2022-11-30T14:45:29.668Z,21.58
2022-11-30T14:48:11.826Z,20.90
2022-11-30T14:50:47.546Z,19.85
2022-11-30T14:53:35.960Z,23.20
2022-11-30T14:56:12.746Z,22.50
2022-11-30T14:58:52.940Z,26.33
2022-11-30T15:01:26.387Z,27.25
2022-11-30T15:03:55.976Z,25.35
2022-11-30T15:06:28.828Z,31.70
2022-11-30T15:08:57.813Z,33.05
2022-11-30T15:11:24.771Z,27.40
2022-11-30T15:13:54.594Z,33.58
2022-11-30T15:16:22.324Z,29.48
2022-11-30T15:18:49.424Z,30.15
2022-11-30T15:21:26.754Z,29.15
2022-11-30T15:23:55.545Z,31.73
2022-11-30T15:26:30.856Z,30.75
2022-11-30T15:29:08.736Z,29.13
2022-11-30T15:31:38.881Z,28.50
2022-11-30T15:34:07.094Z,31.08
2022-11-30T15:36:35.637Z,28.60
2022-11-30T15:39:07.668Z,32.50
2022-11-30T15:41:35.539Z,29.10
2022-11-30T15:44:02.316Z,30.20
2022-11-30T15:46:31.754Z,29.27
2022-11-30T15:49:33.982Z,33.45
2022-11-30T15:52:09.371Z,30.48
2022-11-30T15:54:45.045Z,30.25
2022-11-30T15:57:11.727Z,30.00
2022-11-30T15:59:38.085Z,34.78
2022-11-30T16:02:08.294Z,33.50
2022-11-30T16:04:56.498Z,27.93
2022-11-30T16:07:29.859Z,34.38
2022-11-30T16:10:16.619Z,32.60
2022-11-30T16:12:44.425Z,34.83
2022-11-30T16:15:23.543Z,30.45
2022-11-30T16:17:50.833Z,31.58
2022-11-30T16:20:17.460Z,29.83
2022-11-30T16:22:45.500Z,27.42
2022-11-30T16:25:17.849Z,32.08
2022-11-30T16:27:44.241Z,29.98
2022-11-30T16:30:15.932Z,28.52
2022-11-30T16:32:42.726Z,28.27
2022-11-30T16:35:25.862Z,24.48
2022-11-30T16:37:52.252Z,27.38
2022-11-30T16:40:19.161Z,23.95
2022-11-30T16:42:45.594Z,27.67
2022-11-30T16:45:16.409Z,24.60
2022-11-30T16:47:44.029Z,23.00
2022-11-30T16:50:12.208Z,22.33
2022-11-30T16:52:39.219Z,24.23
2022-11-30T16:55:11.199Z,18.75
2022-11-30T16:57:37.513Z,23.92
2022-11-30T17:00:04.164Z,25.00
2022-11-30T17:02:30.605Z,23.38
2022-11-30T17:04:56.972Z,24.77
2022-11-30T17:07:23.308Z,24.92
2022-11-30T17:09:49.896Z,23.08
2022-11-30T17:12:16.225Z,22.50
2022-11-30T17:14:42.614Z,24.73
2022-11-30T17:17:09.362Z,26.83
2022-11-30T17:19:35.725Z,27.88
2022-11-30T17:22:03.197Z,27.05
2022-11-30T17:24:29.498Z,22.33
2022-11-30T17:26:55.902Z,24.20
2022-11-30T17:29:22.255Z,31.27
2022-11-30T17:31:48.568Z,24.35
2022-11-30T17:34:14.859Z,26.27
2022-11-30T17:36:41.236Z,22.75
2022-11-30T17:39:08.876Z,25.05
2022-11-30T17:41:35.440Z,24.83
2022-11-30T17:44:02.535Z,22.13
2022-11-30T17:46:28.912Z,25.92
2022-11-30T17:48:55.469Z,26.33
2022-11-30T17:51:21.834Z,27.48
2022-11-30T17:53:48.226Z,21.83
2022-11-30T17:56:16.732Z,25.98
2022-11-30T17:58:44.761Z,25.58
2022-11-30T18:01:17.404Z,24.92
2022-11-30T18:03:44.787Z,23.25
2022-11-30T18:06:11.173Z,22.95
2022-11-30T18:08:38.928Z,24.23
2022-11-30T18:11:13.422Z,23.77
2022-11-30T18:13:40.349Z,25.95
2022-11-30T18:16:12.438Z,25.75
2022-11-30T18:18:44.250Z,25.48
2022-11-30T18:21:16.122Z,23.15
2022-11-30T18:23:42.471Z,23.38
2022-11-30T18:26:13.360Z,25.52
2022-11-30T18:28:39.892Z,29.55
2022-11-30T18:31:06.911Z,26.90
2022-11-30T18:33:34.479Z,28.70
2022-11-30T18:36:02.001Z,27.63
2022-11-30T18:38:32.859Z,29.35
2022-11-30T18:41:04.484Z,26.67
2022-11-30T18:43:31.649Z,26.27
2022-11-30T18:46:05.119Z,30.08
2022-11-30T18:48:31.639Z,32.20
2022-11-30T18:50:58.082Z,36.22
2022-11-30T18:53:24.478Z,30.88
2022-11-30T18:55:50.885Z,31.10
2022-11-30T18:58:17.209Z,29.55
2022-11-30T19:00:43.538Z,32.67
2022-11-30T19:03:10.055Z,30.00
2022-11-30T19:05:38.118Z,32.30
2022-11-30T19:08:07.204Z,29.27
2022-11-30T19:10:38.754Z,31.65
2022-11-30T19:13:06.095Z,27.65
2022-11-30T19:15:40.987Z,32.65
2022-11-30T19:18:09.143Z,29.95
2022-11-30T19:20:39.827Z,31.40
2022-11-30T19:23:06.484Z,31.98
2022-11-30T19:25:33.009Z,34.50
2022-11-30T19:27:59.325Z,33.92
2022-11-30T19:30:26.283Z,37.88
2022-11-30T19:32:53.864Z,35.72
2022-11-30T19:35:22.894Z,34.67
2022-11-30T19:37:51.592Z,38.70
2022-11-30T19:40:17.969Z,38.00
2022-11-30T19:42:44.425Z,37.63
2022-11-30T19:45:11.001Z,37.72
2022-11-30T19:47:37.369Z,37.60
2022-11-30T19:50:04.955Z,43.15
2022-11-30T19:52:31.287Z,39.65
2022-11-30T19:54:57.619Z,37.92
2022-11-30T19:57:24.024Z,37.47
2022-11-30T19:59:50.495Z,39.55
2022-11-30T20:02:19.817Z,39.28
2022-11-30T20:04:46.356Z,41.22
2022-11-30T20:07:13.876Z,41.15
2022-11-30T20:09:40.844Z,33.38
2022-11-30T20:12:07.347Z,37.53
2022-11-30T20:14:33.716Z,41.25
2022-11-30T20:17:00.004Z,37.08
2022-11-30T20:19:26.691Z,41.35
2022-11-30T20:21:53.159Z,38.67
2022-11-30T20:24:19.642Z,34.05
2022-11-30T20:26:46.561Z,36.40
2022-11-30T20:29:14.781Z,34.40
2022-11-30T20:31:42.694Z,34.25
2022-11-30T20:34:10.315Z,28.88
2022-11-30T20:36:36.902Z,29.08
2022-11-30T20:39:04.171Z,27.90
2022-11-30T20:41:30.555Z,30.50
2022-11-30T20:43:57.226Z,32.08
2022-11-30T20:46:29.549Z,30.13
2022-11-30T20:48:56.852Z,32.90
2022-11-30T20:51:33.078Z,32.28
2022-11-30T20:54:01.935Z,29.23
2022-11-30T20:56:28.316Z,34.05
2022-11-30T20:58:54.666Z,32.17
2022-11-30T21:01:22.397Z,36.58
2022-11-30T21:03:48.967Z,31.27
2022-11-30T21:06:15.788Z,34.28
2022-11-30T21:08:42.400Z,36.45
2022-11-30T21:11:20.503Z,31.08
2022-11-30T21:13:49.127Z,36.17
2022-11-30T21:16:17.243Z,35.03
2022-11-30T21:18:45.394Z,34.85
2022-11-30T21:21:20.418Z,37.60
2022-11-30T21:23:48.090Z,41.08
2022-11-30T21:26:23.519Z,36.00
2022-11-30T21:28:54.299Z,40.20
2022-11-30T21:31:21.600Z,35.28
2022-11-30T21:33:52.714Z,35.70
2022-11-30T21:36:19.931Z,37.33
2022-11-30T21:38:46.292Z,40.10
2022-11-30T21:41:13.580Z,36.28
2022-11-30T21:43:40.975Z,38.40
2022-11-30T21:46:12.468Z,41.47
2022-11-30T21:48:40.988Z,40.13
2022-11-30T21:51:14.298Z,43.40
2022-11-30T21:53:43.493Z,42.22
2022-11-30T21:56:15.350Z,34.70
2022-11-30T21:58:43.677Z,43.42
2022-11-30T22:01:20.592Z,40.70
2022-11-30T22:03:47.245Z,40.15
2022-11-30T22:06:15.430Z,37.92
2022-11-30T22:08:42.184Z,38.50
2022-11-30T22:11:11.235Z,35.80
2022-11-30T22:13:38.419Z,43.00
2022-11-30T22:16:08.022Z,33.75
2022-11-30T22:18:34.796Z,39.60
2022-11-30T22:21:09.200Z,41.22
2022-11-30T22:23:37.776Z,42.95
2022-11-30T22:26:27.215Z,44.22
2022-11-30T22:28:59.014Z,42.00
2022-11-30T22:31:28.678Z,42.45
2022-11-30T22:33:56.081Z,44.47
2022-11-30T22:36:25.301Z,48.20
2022-11-30T22:39:04.182Z,42.67
2022-11-30T22:41:30.800Z,45.08
2022-11-30T22:43:58.390Z,43.20
2022-11-30T22:46:27.326Z,40.95
2022-11-30T22:48:54.096Z,45.53
2022-11-30T22:51:23.207Z,45.30
2022-11-30T22:53:50.524Z,45.25
2022-11-30T22:56:20.674Z,47.20
2022-11-30T22:58:49.069Z,44.00
2022-11-30T23:01:21.252Z,45.08
2022-11-30T23:03:49.030Z,39.90
2022-11-30T23:06:18.312Z,41.53
2022-11-30T23:08:46.002Z,47.47
2022-11-30T23:11:15.338Z,39.90
2022-11-30T23:13:43.138Z,39.83
2022-11-30T23:16:11.372Z,39.22
2022-11-30T23:18:40.174Z,39.00
2022-11-30T23:21:10.962Z,42.97
2022-11-30T23:23:37.474Z,42.22
2022-11-30T23:26:12.562Z,38.65
2022-11-30T23:28:40.881Z,42.38
2022-11-30T23:31:33.970Z,39.75
2022-11-30T23:36:24.986Z,48.92
2022-11-30T23:38:57.412Z,44.30
2022-11-30T23:41:24.543Z,43.42
2022-11-30T23:43:50.895Z,36.28
2022-11-30T23:46:17.485Z,48.00
2022-11-30T23:48:43.843Z,45.10
2022-11-30T23:51:10.157Z,45.08
2022-11-30T23:53:36.684Z,44.15
2022-11-30T23:56:05.539Z,42.28
2022-11-30T23:58:32.793Z,42.67
